createdAt,value
2019-05-22T00:04:30.826Z,97124.16
2019-05-22T00:09:44.985Z,97128.56
2019-05-22T00:14:41.593Z,97122.63
2019-05-22T00:19:38.500Z,97122.63
2019-05-22T00:24:35.627Z,97123.09
2019-05-22T00:29:34.044Z,97127.89
2019-05-22T00:34:30.714Z,97127.41
2019-05-22T00:39:28.848Z,97125.27
2019-05-22T00:44:24.742Z,97126.31
2019-05-22T00:49:24.962Z,97126.10
2019-05-22T00:54:28.763Z,97129.30
2019-05-22T00:59:29.554Z,97123.21
2019-05-22T01:04:32.308Z,97124.41
2019-05-22T01:09:39.619Z,97130.39
2019-05-22T01:14:42.815Z,97120.85
2019-05-22T01:19:35.914Z,97125.14
2019-05-22T01:24:33.518Z,97131.34
2019-05-22T01:29:31.644Z,97127.63
2019-05-22T01:34:30.577Z,97132.27
2019-05-22T01:39:45.135Z,97132.04
2019-05-22T01:44:41.578Z,97132.16
2019-05-22T01:49:51.795Z,97134.78
2019-05-22T01:54:48.556Z,97137.52
2019-05-22T01:59:45.128Z,97140.28
2019-05-22T02:04:43.354Z,97140.28
2019-05-22T02:09:42.636Z,97138.62
2019-05-22T02:14:44.746Z,97129.20
2019-05-22T02:19:41.893Z,97134.06
2019-05-22T02:24:42.357Z,97136.33
2019-05-22T02:29:40.648Z,97132.64
2019-05-22T02:34:37.428Z,97135.14
2019-05-22T02:39:35.336Z,97134.54
2019-05-22T02:44:31.438Z,97135.02
2019-05-22T02:49:29.577Z,97137.77
2019-05-22T02:54:27.567Z,97134.87
2019-05-22T02:59:25.504Z,97138.10
2019-05-22T03:04:27.520Z,97142.64
2019-05-22T03:09:25.570Z,97142.39
2019-05-22T03:14:22.148Z,97133.33
2019-05-22T03:19:36.872Z,97137.75
2019-05-22T03:24:35.218Z,97138.44
2019-05-22T03:29:54.489Z,97143.11
2019-05-22T03:34:51.499Z,97144.42
2019-05-22T03:39:49.379Z,97135.81
2019-05-22T03:44:47.613Z,97144.99
2019-05-22T03:49:45.131Z,97142.37
2019-05-22T03:54:43.510Z,97141.53
2019-05-22T03:59:43.059Z,97148.91
2019-05-22T04:04:42.617Z,97147.27
2019-05-22T04:09:40.609Z,97146.92
2019-05-22T04:14:39.006Z,97144.66
2019-05-22T04:19:48.650Z,97157.09
2019-05-22T04:24:34.922Z,97159.11
2019-05-22T04:29:43.767Z,97156.98
2019-05-22T04:35:21.637Z,97153.31
2019-05-22T05:10:24.922Z,97184.74
2019-05-22T05:16:12.671Z,97187.86
2019-05-22T05:21:15.939Z,97186.70
2019-05-22T05:26:43.675Z,97192.78
2019-05-22T05:31:50.093Z,97196.11
2019-05-22T05:36:51.853Z,97195.63
2019-05-22T05:41:53.463Z,97204.73
2019-05-22T05:47:03.144Z,97209.75
2019-05-22T05:52:02.525Z,97215.52
2019-05-22T05:57:39.661Z,97223.27
2019-05-22T06:03:08.509Z,97226.77
2019-05-22T06:08:15.451Z,97234.75
2019-05-22T06:19:18.879Z,97242.34
2019-05-22T06:24:57.356Z,97247.14
2019-05-22T06:30:12.539Z,97243.34
2019-05-22T06:35:29.642Z,97249.23
2019-05-22T06:40:56.828Z,97247.34
2019-05-22T06:46:12.405Z,97249.48
2019-05-22T06:51:25.071Z,97254.11
2019-05-22T06:56:33.923Z,97252.53
2019-05-22T07:01:45.063Z,97259.23
2019-05-22T07:07:01.015Z,97255.98
2019-05-22T07:12:21.801Z,97259.00
2019-05-22T07:17:39.686Z,97260.70
2019-05-22T07:22:54.408Z,97255.66
2019-05-22T07:28:01.298Z,97250.59
2019-05-22T07:33:14.865Z,97251.27
2019-05-22T07:38:14.017Z,97252.45
2019-05-22T07:43:10.523Z,97253.69
2019-05-22T07:48:07.870Z,97255.67
2019-05-22T07:53:05.200Z,97259.66
2019-05-22T07:58:14.613Z,97254.93
2019-05-22T08:03:12.908Z,97256.17
2019-05-22T08:08:09.611Z,97251.70
2019-05-22T08:13:06.181Z,97245.06
2019-05-22T08:18:03.427Z,97254.83
2019-05-22T08:23:01.420Z,97254.01
2019-05-22T08:27:59.081Z,97252.30
2019-05-22T08:32:56.833Z,97253.53
2019-05-22T08:37:53.691Z,97252.80
2019-05-22T08:42:50.963Z,97253.38
2019-05-22T08:47:47.379Z,97256.89
2019-05-22T08:52:44.981Z,97267.21
2019-05-22T08:57:42.861Z,97269.55
2019-05-22T09:02:39.218Z,97269.05
2019-05-22T09:07:39.431Z,97270.91
2019-05-22T09:12:35.663Z,97275.06
2019-05-22T09:17:35.185Z,97266.65
2019-05-22T09:22:40.552Z,97272.67
2019-05-22T09:27:31.191Z,97273.52
2019-05-22T09:32:27.456Z,97281.33
2019-05-22T09:37:23.381Z,97275.88
2019-05-22T09:42:19.998Z,97277.50
2019-05-22T09:47:21.491Z,97280.78
2019-05-22T09:52:30.696Z,97285.08
2019-05-22T09:57:32.686Z,97297.61
2019-05-22T10:02:42.866Z,97295.30
2019-05-22T10:07:57.685Z,97300.75
2019-05-22T10:13:04.004Z,97308.66
2019-05-22T10:18:07.056Z,97301.25
2019-05-22T10:23:16.411Z,97309.21
2019-05-22T10:28:33.697Z,97308.28
2019-05-22T10:33:58.475Z,97307.36
2019-05-22T10:39:00.489Z,97295.85
2019-05-22T10:44:12.076Z,97304.39
2019-05-22T10:49:21.386Z,97305.38
2019-05-22T10:54:18.010Z,97300.22
2019-05-22T10:59:14.006Z,97288.83
2019-05-22T11:04:10.778Z,97285.30
2019-05-22T11:09:09.950Z,97279.28
2019-05-22T11:14:27.875Z,97279.27
2019-05-22T11:19:49.162Z,97277.90
2019-05-22T11:25:29.768Z,97268.50
2019-05-22T11:30:23.922Z,97265.66
2019-05-22T11:35:35.257Z,97262.56
2019-05-22T18:47:55.364Z,97253.04
2019-05-22T18:52:52.847Z,97254.89
2019-05-22T18:57:48.861Z,97252.02
2019-05-22T19:02:44.827Z,97258.80
2019-05-22T19:07:47.873Z,97270.02
2019-05-22T19:12:51.416Z,97273.80
2019-05-22T19:17:47.916Z,97284.27
2019-05-22T19:22:58.555Z,97297.63
2019-05-22T19:27:42.908Z,97300.96
2019-05-22T19:32:39.119Z,97301.42
2019-05-22T19:37:35.092Z,97313.98
2019-05-22T19:42:31.620Z,97318.73
2019-05-22T19:47:28.044Z,97319.19
2019-05-22T19:52:40.385Z,97324.41
2019-05-22T19:57:24.885Z,97327.16
2019-05-22T20:02:20.743Z,97326.52
2019-05-22T20:07:18.287Z,97330.27
2019-05-22T20:12:18.194Z,97330.25
2019-05-22T20:17:18.850Z,97333.39
2019-05-22T20:22:15.018Z,97331.63
2019-05-22T20:27:14.438Z,97339.02
2019-05-22T20:32:14.098Z,97330.17
2019-05-22T20:37:10.479Z,97339.74
2019-05-22T20:42:07.935Z,97335.32
2019-05-22T20:47:07.085Z,97350.05
2019-05-22T20:52:05.303Z,97347.64
2019-05-22T20:57:06.749Z,97351.11
2019-05-22T21:02:02.700Z,97357.56
2019-05-22T21:11:56.669Z,97365.09
2019-05-22T21:16:52.922Z,97360.92
2019-05-22T21:21:53.009Z,97363.78
2019-05-22T21:26:50.149Z,97374.29
2019-05-22T21:31:47.943Z,97366.25
2019-05-22T21:36:44.394Z,97373.05
2019-05-22T21:41:40.823Z,97371.42
2019-05-22T21:46:37.111Z,97371.80
2019-05-22T21:51:33.041Z,97371.58
2019-05-22T21:56:28.995Z,97367.44
2019-05-22T22:01:38.698Z,97371.62
2019-05-22T22:06:34.838Z,97369.83
2019-05-22T22:11:31.853Z,97369.45
2019-05-22T22:16:29.324Z,97375.34
2019-05-22T22:21:26.188Z,97376.96
2019-05-22T22:26:25.920Z,97376.81
2019-05-22T22:31:22.218Z,97387.37
2019-05-22T22:36:20.871Z,97389.59
2019-05-22T22:41:19.144Z,97394.48
2019-05-22T22:46:30.471Z,97384.94
2019-05-22T22:51:27.481Z,97384.95
2019-05-22T22:56:24.259Z,97383.31
2019-05-22T23:01:28.583Z,97386.72
2019-05-22T23:06:25.284Z,97385.41
2019-05-22T23:11:22.713Z,97382.13
2019-05-22T23:16:21.123Z,97389.17
2019-05-22T23:21:15.984Z,97386.59
2019-05-22T23:26:14.029Z,97381.27
2019-05-22T23:31:11.848Z,97381.39
2019-05-22T23:36:08.938Z,97378.48
2019-05-22T23:41:06.065Z,97371.73
2019-05-22T23:46:03.731Z,97378.87
2019-05-22T23:51:00.017Z,97383.85
2019-05-22T23:55:56.957Z,97385.37
